sensor_id;sensor_type;location;lat;lon;timestamp;temperature;humidity
1417;DHT22;703;51.162;13.574;2023-04-01T00:00:52;9.30;99.90
1417;DHT22;703;51.162;13.574;2023-04-01T00:03:19;9.40;99.90
1417;DHT22;703;51.162;13.574;2023-04-01T00:05:46;9.50;99.90
1417;DHT22;703;51.162;13.574;2023-04-01T00:08:11;9.40;99.90
1417;DHT22;703;51.162;13.574;2023-04-01T00:10:37;9.40;99.90
1417;DHT22;703;51.162;13.574;2023-04-01T00:13:02;9.40;99.90
1417;DHT22;703;51.162;13.574;2023-04-01T00:15:28;9.40;99.90
1417;DHT22;703;51.162;13.574;2023-04-01T00:17:54;9.30;99.90
1417;DHT22;703;51.162;13.574;2023-04-01T00:20:20;9.40;99.90
1417;DHT22;703;51.162;13.574;2023-04-01T00:22:45;9.40;99.90
1417;DHT22;703;51.162;13.574;2023-04-01T00:25:11;9.40;99.90
1417;DHT22;703;51.162;13.574;2023-04-01T00:27:37;9.40;99.90
1417;DHT22;703;51.162;13.574;2023-04-01T00:30:03;9.40;99.90
1417;DHT22;703;51.162;13.574;2023-04-01T00:32:28;9.40;99.90
1417;DHT22;703;51.162;13.574;2023-04-01T00:34:55;9.30;99.90
1417;DHT22;703;51.162;13.574;2023-04-01T00:37:21;9.40;99.90
1417;DHT22;703;51.162;13.574;2023-04-01T00:39:48;9.40;99.90
1417;DHT22;703;51.162;13.574;2023-04-01T00:42:13;9.40;99.90
1417;DHT22;703;51.162;13.574;2023-04-01T00:44:39;9.40;99.90
1417;DHT22;703;51.162;13.574;2023-04-01T00:47:05;9.40;99.90
1417;DHT22;703;51.162;13.574;2023-04-01T00:49:34;9.40;99.90
1417;DHT22;703;51.162;13.574;2023-04-01T00:52:03;9.40;99.90
1417;DHT22;703;51.162;13.574;2023-04-01T00:54:31;9.50;99.90
1417;DHT22;703;51.162;13.574;2023-04-01T00:57:11;9.40;99.90
1417;DHT22;703;51.162;13.574;2023-04-01T00:59:44;9.30;99.90
1417;DHT22;703;51.162;13.574;2023-04-01T01:02:11;9.40;99.90
1417;DHT22;703;51.162;13.574;2023-04-01T01:04:37;9.40;99.90
1417;DHT22;703;51.162;13.574;2023-04-01T01:07:25;9.40;99.90
1417;DHT22;703;51.162;13.574;2023-04-01T01:18:08;9.50;99.90
1417;DHT22;703;51.162;13.574;2023-04-01T01:20:47;9.50;99.90
1417;DHT22;703;51.162;13.574;2023-04-01T01:31:36;9.50;99.90
1417;DHT22;703;51.162;13.574;2023-04-01T01:34:19;9.50;99.90
1417;DHT22;703;51.162;13.574;2023-04-01T01:36:50;9.50;99.90
1417;DHT22;703;51.162;13.574;2023-04-01T01:39:19;9.50;99.90
1417;DHT22;703;51.162;13.574;2023-04-01T01:41:47;9.50;99.90
1417;DHT22;703;51.162;13.574;2023-04-01T01:44:16;9.50;99.90
1417;DHT22;703;51.162;13.574;2023-04-01T01:46:43;9.50;99.90
1417;DHT22;703;51.162;13.574;2023-04-01T01:49:11;9.40;99.90
1417;DHT22;703;51.162;13.574;2023-04-01T01:51:38;9.40;99.90
1417;DHT22;703;51.162;13.574;2023-04-01T01:54:05;9.40;99.90
1417;DHT22;703;51.162;13.574;2023-04-01T01:56:30;9.50;99.90
1417;DHT22;703;51.162;13.574;2023-04-01T01:59:03;9.50;99.90
1417;DHT22;703;51.162;13.574;2023-04-01T02:01:33;9.40;99.90
1417;DHT22;703;51.162;13.574;2023-04-01T02:04:01;9.40;99.90
1417;DHT22;703;51.162;13.574;2023-04-01T02:06:30;9.50;99.90
1417;DHT22;703;51.162;13.574;2023-04-01T02:09:00;9.30;99.90
1417;DHT22;703;51.162;13.574;2023-04-01T02:11:52;9.50;99.90
1417;DHT22;703;51.162;13.574;2023-04-01T02:14:21;9.50;99.90
1417;DHT22;703;51.162;13.574;2023-04-01T02:17:04;9.40;99.90
1417;DHT22;703;51.162;13.574;2023-04-01T02:19:36;9.50;99.90
1417;DHT22;703;51.162;13.574;2023-04-01T02:22:05;9.60;99.90
1417;DHT22;703;51.162;13.574;2023-04-01T02:24:34;9.50;99.90
1417;DHT22;703;51.162;13.574;2023-04-01T02:27:01;9.40;99.90
1417;DHT22;703;51.162;13.574;2023-04-01T02:29:26;9.30;99.90
1417;DHT22;703;51.162;13.574;2023-04-01T02:31:53;9.50;99.90
1417;DHT22;703;51.162;13.574;2023-04-01T02:34:20;9.40;99.90
1417;DHT22;703;51.162;13.574;2023-04-01T02:36:47;9.50;99.90
1417;DHT22;703;51.162;13.574;2023-04-01T02:39:13;9.30;99.90
1417;DHT22;703;51.162;13.574;2023-04-01T02:41:43;9.30;99.90
1417;DHT22;703;51.162;13.574;2023-04-01T02:44:10;9.30;99.90
1417;DHT22;703;51.162;13.574;2023-04-01T02:46:36;9.00;99.90
1417;DHT22;703;51.162;13.574;2023-04-01T02:49:03;9.40;99.90
1417;DHT22;703;51.162;13.574;2023-04-01T02:51:28;9.20;99.90
1417;DHT22;703;51.162;13.574;2023-04-01T02:53:54;9.30;99.90
1417;DHT22;703;51.162;13.574;2023-04-01T02:56:19;9.40;99.90
1417;DHT22;703;51.162;13.574;2023-04-01T02:58:46;9.30;99.90
1417;DHT22;703;51.162;13.574;2023-04-01T03:01:11;9.40;99.90
1417;DHT22;703;51.162;13.574;2023-04-01T03:03:37;9.30;99.90
1417;DHT22;703;51.162;13.574;2023-04-01T03:06:10;9.30;99.90
1417;DHT22;703;51.162;13.574;2023-04-01T03:08:36;9.50;99.90
1417;DHT22;703;51.162;13.574;2023-04-01T03:11:02;9.30;99.90
1417;DHT22;703;51.162;13.574;2023-04-01T03:13:28;9.20;99.90
1417;DHT22;703;51.162;13.574;2023-04-01T03:15:53;11.60;99.90
1417;DHT22;703;51.162;13.574;2023-04-01T03:18:19;9.40;99.90
1417;DHT22;703;51.162;13.574;2023-04-01T03:20:45;9.20;99.90
1417;DHT22;703;51.162;13.574;2023-04-01T03:23:10;9.30;99.90
1417;DHT22;703;51.162;13.574;2023-04-01T03:25:36;9.20;99.90
1417;DHT22;703;51.162;13.574;2023-04-01T03:28:02;9.30;99.90
1417;DHT22;703;51.162;13.574;2023-04-01T03:30:28;9.40;99.90
1417;DHT22;703;51.162;13.574;2023-04-01T03:32:55;9.20;99.90
1417;DHT22;703;51.162;13.574;2023-04-01T03:35:21;9.30;99.90
1417;DHT22;703;51.162;13.574;2023-04-01T03:37:46;9.10;99.90
1417;DHT22;703;51.162;13.574;2023-04-01T03:40:12;9.30;99.90
1417;DHT22;703;51.162;13.574;2023-04-01T03:42:37;9.10;99.90
1417;DHT22;703;51.162;13.574;2023-04-01T03:45:04;9.30;99.90
1417;DHT22;703;51.162;13.574;2023-04-01T03:47:30;9.20;99.90
1417;DHT22;703;51.162;13.574;2023-04-01T03:49:55;9.20;99.90
1417;DHT22;703;51.162;13.574;2023-04-01T03:52:21;9.20;99.90
1417;DHT22;703;51.162;13.574;2023-04-01T03:54:46;9.30;99.90
1417;DHT22;703;51.162;13.574;2023-04-01T03:57:12;9.20;99.90
1417;DHT22;703;51.162;13.574;2023-04-01T03:59:37;9.20;99.90
1417;DHT22;703;51.162;13.574;2023-04-01T04:02:03;9.20;99.90
1417;DHT22;703;51.162;13.574;2023-04-01T04:04:29;9.20;99.90
1417;DHT22;703;51.162;13.574;2023-04-01T04:06:55;9.20;99.90
1417;DHT22;703;51.162;13.574;2023-04-01T04:09:21;9.20;99.90
1417;DHT22;703;51.162;13.574;2023-04-01T04:11:47;9.30;99.90
1417;DHT22;703;51.162;13.574;2023-04-01T04:14:13;9.30;99.90
1417;DHT22;703;51.162;13.574;2023-04-01T04:16:38;9.20;99.90
1417;DHT22;703;51.162;13.574;2023-04-01T04:19:04;9.20;99.90
1417;DHT22;703;51.162;13.574;2023-04-01T04:21:29;9.20;99.90
1417;DHT22;703;51.162;13.574;2023-04-01T04:23:55;9.30;99.90
1417;DHT22;703;51.162;13.574;2023-04-01T04:26:20;9.30;99.90
1417;DHT22;703;51.162;13.574;2023-04-01T04:28:46;9.40;99.90
1417;DHT22;703;51.162;13.574;2023-04-01T04:31:11;9.30;99.90
1417;DHT22;703;51.162;13.574;2023-04-01T04:33:37;9.30;99.90
1417;DHT22;703;51.162;13.574;2023-04-01T04:36:03;9.20;99.90
1417;DHT22;703;51.162;13.574;2023-04-01T04:38:29;9.40;99.90
1417;DHT22;703;51.162;13.574;2023-04-01T04:40:55;9.30;99.90
1417;DHT22;703;51.162;13.574;2023-04-01T04:43:21;9.40;99.90
1417;DHT22;703;51.162;13.574;2023-04-01T04:45:47;9.30;99.90
1417;DHT22;703;51.162;13.574;2023-04-01T04:48:14;9.40;99.90
1417;DHT22;703;51.162;13.574;2023-04-01T04:50:47;9.40;99.90
1417;DHT22;703;51.162;13.574;2023-04-01T04:53:15;9.30;99.90
1417;DHT22;703;51.162;13.574;2023-04-01T04:55:48;9.30;99.90
1417;DHT22;703;51.162;13.574;2023-04-01T04:58:14;9.50;99.90
1417;DHT22;703;51.162;13.574;2023-04-01T05:00:40;9.40;99.90
1417;DHT22;703;51.162;13.574;2023-04-01T05:03:06;9.30;99.90
1417;DHT22;703;51.162;13.574;2023-04-01T05:05:32;9.40;99.90
1417;DHT22;703;51.162;13.574;2023-04-01T05:07:58;9.30;99.90
1417;DHT22;703;51.162;13.574;2023-04-01T05:10:23;9.40;99.90
1417;DHT22;703;51.162;13.574;2023-04-01T05:12:49;9.40;99.90
1417;DHT22;703;51.162;13.574;2023-04-01T05:15:14;9.40;99.90
1417;DHT22;703;51.162;13.574;2023-04-01T05:17:40;9.40;99.90
1417;DHT22;703;51.162;13.574;2023-04-01T05:20:06;9.40;99.90
1417;DHT22;703;51.162;13.574;2023-04-01T05:22:32;9.40;99.90
1417;DHT22;703;51.162;13.574;2023-04-01T05:24:57;9.40;99.90
1417;DHT22;703;51.162;13.574;2023-04-01T05:27:23;9.40;99.90
1417;DHT22;703;51.162;13.574;2023-04-01T05:29:48;9.30;99.90
1417;DHT22;703;51.162;13.574;2023-04-01T05:32:14;9.40;99.90
1417;DHT22;703;51.162;13.574;2023-04-01T05:34:40;9.40;99.90
1417;DHT22;703;51.162;13.574;2023-04-01T05:37:05;9.40;99.90
1417;DHT22;703;51.162;13.574;2023-04-01T05:39:36;9.50;99.90
1417;DHT22;703;51.162;13.574;2023-04-01T05:42:02;9.50;99.90
1417;DHT22;703;51.162;13.574;2023-04-01T05:44:27;11.50;99.90
1417;DHT22;703;51.162;13.574;2023-04-01T05:46:53;9.50;99.90
1417;DHT22;703;51.162;13.574;2023-04-01T05:49:18;9.50;99.90
1417;DHT22;703;51.162;13.574;2023-04-01T05:51:44;9.50;99.90
1417;DHT22;703;51.162;13.574;2023-04-01T05:54:09;9.50;99.90
1417;DHT22;703;51.162;13.574;2023-04-01T05:56:35;9.60;99.90
1417;DHT22;703;51.162;13.574;2023-04-01T05:59:01;9.50;99.90
1417;DHT22;703;51.162;13.574;2023-04-01T06:01:26;9.50;99.90
1417;DHT22;703;51.162;13.574;2023-04-01T06:03:52;9.60;99.90
1417;DHT22;703;51.162;13.574;2023-04-01T06:06:28;9.60;99.90
1417;DHT22;703;51.162;13.574;2023-04-01T06:08:56;9.70;99.90
1417;DHT22;703;51.162;13.574;2023-04-01T06:14:26;9.70;99.90
1417;DHT22;703;51.162;13.574;2023-04-01T06:45:32;10.10;99.90
1417;DHT22;703;51.162;13.574;2023-04-01T06:50:48;10.10;99.90
1417;DHT22;703;51.162;13.574;2023-04-01T06:53:42;10.20;99.90
1417;DHT22;703;51.162;13.574;2023-04-01T06:56:13;10.20;99.90
1417;DHT22;703;51.162;13.574;2023-04-01T06:58:46;10.30;99.90
1417;DHT22;703;51.162;13.574;2023-04-01T07:01:18;10.40;99.90
1417;DHT22;703;51.162;13.574;2023-04-01T07:06:56;10.40;99.90
1417;DHT22;703;51.162;13.574;2023-04-01T07:09:26;10.50;99.90
1417;DHT22;703;51.162;13.574;2023-04-01T07:11:56;10.50;99.90
1417;DHT22;703;51.162;13.574;2023-04-01T07:14:30;10.50;99.90
1417;DHT22;703;51.162;13.574;2023-04-01T07:17:20;10.70;99.90
1417;DHT22;703;51.162;13.574;2023-04-01T07:20:05;10.70;99.90
1417;DHT22;703;51.162;13.574;2023-04-01T07:22:40;10.70;99.90
1417;DHT22;703;51.162;13.574;2023-04-01T07:25:24;10.70;99.90
1417;DHT22;703;51.162;13.574;2023-04-01T07:27:53;10.70;99.90
1417;DHT22;703;51.162;13.574;2023-04-01T07:30:23;10.70;99.90
1417;DHT22;703;51.162;13.574;2023-04-01T07:33:05;10.70;99.90
1417;DHT22;703;51.162;13.574;2023-04-01T07:35:45;10.20;99.90
1417;DHT22;703;51.162;13.574;2023-04-01T07:49:40;10.80;99.90
1417;DHT22;703;51.162;13.574;2023-04-01T07:54:52;9.80;99.90
1417;DHT22;703;51.162;13.574;2023-04-01T07:57:35;10.90;99.90
1417;DHT22;703;51.162;13.574;2023-04-01T08:00:11;10.90;99.90
1417;DHT22;703;51.162;13.574;2023-04-01T08:03:02;11.20;99.90
1417;DHT22;703;51.162;13.574;2023-04-01T08:05:49;9.20;99.90
1417;DHT22;703;51.162;13.574;2023-04-01T08:08:28;11.20;99.90
1417;DHT22;703;51.162;13.574;2023-04-01T08:11:32;11.40;99.90
1417;DHT22;703;51.162;13.574;2023-04-01T08:19:31;11.20;99.90
1417;DHT22;703;51.162;13.574;2023-04-01T08:22:07;11.40;99.90
1417;DHT22;703;51.162;13.574;2023-04-01T08:24:43;13.10;99.90
1417;DHT22;703;51.162;13.574;2023-04-01T08:27:35;11.10;99.90
1417;DHT22;703;51.162;13.574;2023-04-01T08:32:35;11.10;99.90
1417;DHT22;703;51.162;13.574;2023-04-01T08:35:18;11.70;99.90
1417;DHT22;703;51.162;13.574;2023-04-01T08:37:45;11.60;99.90
1417;DHT22;703;51.162;13.574;2023-04-01T08:43:16;11.40;99.90
1417;DHT22;703;51.162;13.574;2023-04-01T08:46:19;11.50;99.90
1417;DHT22;703;51.162;13.574;2023-04-01T08:52:01;11.70;99.90
1417;DHT22;703;51.162;13.574;2023-04-01T09:00:35;12.10;99.90
1417;DHT22;703;51.162;13.574;2023-04-01T09:06:21;12.10;99.90
1417;DHT22;703;51.162;13.574;2023-04-01T09:12:13;12.20;99.90
1417;DHT22;703;51.162;13.574;2023-04-01T09:26:08;12.30;99.90
1417;DHT22;703;51.162;13.574;2023-04-01T09:32:14;12.20;99.90
1417;DHT22;703;51.162;13.574;2023-04-01T09:37:33;11.90;99.90
1417;DHT22;703;51.162;13.574;2023-04-01T09:45:26;12.20;99.90
1417;DHT22;703;51.162;13.574;2023-04-01T09:48:29;12.00;99.90
1417;DHT22;703;51.162;13.574;2023-04-01T09:51:23;12.20;99.90
1417;DHT22;703;51.162;13.574;2023-04-01T09:54:10;12.20;99.90
1417;DHT22;703;51.162;13.574;2023-04-01T09:59:47;12.30;99.90
1417;DHT22;703;51.162;13.574;2023-04-01T10:11:00;12.20;99.90
1417;DHT22;703;51.162;13.574;2023-04-01T10:25:55;12.30;99.90
1417;DHT22;703;51.162;13.574;2023-04-01T10:37:23;12.30;99.90
1417;DHT22;703;51.162;13.574;2023-04-01T10:40:05;12.20;99.90
1417;DHT22;703;51.162;13.574;2023-04-01T10:45:55;12.20;99.90
1417;DHT22;703;51.162;13.574;2023-04-01T10:48:59;12.20;99.90
1417;DHT22;703;51.162;13.574;2023-04-01T10:51:55;12.50;99.90
1417;DHT22;703;51.162;13.574;2023-04-01T10:54:33;12.40;99.90
1417;DHT22;703;51.162;13.574;2023-04-01T11:00:12;12.40;99.90
1417;DHT22;703;51.162;13.574;2023-04-01T11:12:09;12.70;99.90
1417;DHT22;703;51.162;13.574;2023-04-01T11:23:16;12.80;99.90
1417;DHT22;703;51.162;13.574;2023-04-01T11:29:03;12.90;99.90
1417;DHT22;703;51.162;13.574;2023-04-01T11:31:55;13.00;99.90
1417;DHT22;703;51.162;13.574;2023-04-01T11:40:37;13.50;99.90
1417;DHT22;703;51.162;13.574;2023-04-01T11:46:00;13.30;99.90
1417;DHT22;703;51.162;13.574;2023-04-01T11:48:52;12.60;99.90
1417;DHT22;703;51.162;13.574;2023-04-01T11:52:13;13.10;99.90
1417;DHT22;703;51.162;13.574;2023-04-01T11:58:22;13.30;99.90
1417;DHT22;703;51.162;13.574;2023-04-01T12:03:41;13.20;99.90
1417;DHT22;703;51.162;13.574;2023-04-01T12:06:35;13.20;99.90
1417;DHT22;703;51.162;13.574;2023-04-01T12:14:40;13.20;99.90
1417;DHT22;703;51.162;13.574;2023-04-01T12:20:36;13.60;99.90
1417;DHT22;703;51.162;13.574;2023-04-01T12:23:37;13.40;99.90
1417;DHT22;703;51.162;13.574;2023-04-01T12:29:13;13.20;99.90
1417;DHT22;703;51.162;13.574;2023-04-01T12:32:09;12.90;99.90
1417;DHT22;703;51.162;13.574;2023-04-01T12:37:50;13.20;99.90
1417;DHT22;703;51.162;13.574;2023-04-01T12:40:46;13.30;99.90
1417;DHT22;703;51.162;13.574;2023-04-01T12:57:30;13.20;99.90
1417;DHT22;703;51.162;13.574;2023-04-01T13:06:01;14.40;99.90
1417;DHT22;703;51.162;13.574;2023-04-01T13:09:11;14.50;99.90
1417;DHT22;703;51.162;13.574;2023-04-01T13:20:02;13.20;99.90
1417;DHT22;703;51.162;13.574;2023-04-01T13:22:48;13.10;99.90
1417;DHT22;703;51.162;13.574;2023-04-01T13:25:21;13.10;99.90
1417;DHT22;703;51.162;13.574;2023-04-01T13:28:39;13.10;99.90
1417;DHT22;703;51.162;13.574;2023-04-01T13:30:45;13.10;99.90
1417;DHT22;703;51.162;13.574;2023-04-01T13:33:25;13.10;99.90
1417;DHT22;703;51.162;13.574;2023-04-01T13:41:38;13.40;99.90
1417;DHT22;703;51.162;13.574;2023-04-01T13:44:22;13.10;99.90
1417;DHT22;703;51.162;13.574;2023-04-01T13:55:20;12.80;99.90
1417;DHT22;703;51.162;13.574;2023-04-01T13:58:17;13.10;99.90
1417;DHT22;703;51.162;13.574;2023-04-01T14:07:01;13.00;99.90
1417;DHT22;703;51.162;13.574;2023-04-01T14:15:39;13.20;99.90
1417;DHT22;703;51.162;13.574;2023-04-01T14:18:29;13.40;99.90
1417;DHT22;703;51.162;13.574;2023-04-01T14:21:17;13.60;99.90
1417;DHT22;703;51.162;13.574;2023-04-01T14:23:57;13.60;99.90
1417;DHT22;703;51.162;13.574;2023-04-01T14:40:48;12.90;99.90
1417;DHT22;703;51.162;13.574;2023-04-01T14:48:52;12.60;99.90
1417;DHT22;703;51.162;13.574;2023-04-01T14:51:37;13.00;99.90
1417;DHT22;703;51.162;13.574;2023-04-01T14:54:17;13.30;99.90
1417;DHT22;703;51.162;13.574;2023-04-01T14:57:01;13.50;99.90
1417;DHT22;703;51.162;13.574;2023-04-01T14:59:29;13.90;99.90
1417;DHT22;703;51.162;13.574;2023-04-01T15:02:35;13.90;99.90
1417;DHT22;703;51.162;13.574;2023-04-01T15:07:55;13.70;99.90
1417;DHT22;703;51.162;13.574;2023-04-01T15:13:33;13.40;99.90
1417;DHT22;703;51.162;13.574;2023-04-01T15:19:05;13.00;99.90
1417;DHT22;703;51.162;13.574;2023-04-01T15:22:19;12.80;99.90
1417;DHT22;703;51.162;13.574;2023-04-01T15:25:05;12.70;99.90
1417;DHT22;703;51.162;13.574;2023-04-01T15:30:25;12.70;99.90
1417;DHT22;703;51.162;13.574;2023-04-01T15:35:47;12.80;99.90
1417;DHT22;703;51.162;13.574;2023-04-01T15:38:18;12.70;99.90
1417;DHT22;703;51.162;13.574;2023-04-01T15:41:23;12.40;99.90
1417;DHT22;703;51.162;13.574;2023-04-01T15:43:51;12.50;99.90
1417;DHT22;703;51.162;13.574;2023-04-01T15:46:44;12.50;99.90
1417;DHT22;703;51.162;13.574;2023-04-01T15:49:26;12.60;99.90
1417;DHT22;703;51.162;13.574;2023-04-01T15:52:10;12.60;99.90
1417;DHT22;703;51.162;13.574;2023-04-01T15:54:47;12.70;99.90
1417;DHT22;703;51.162;13.574;2023-04-01T16:00:26;12.60;99.90
1417;DHT22;703;51.162;13.574;2023-04-01T16:03:20;12.50;99.90
1417;DHT22;703;51.162;13.574;2023-04-01T16:09:17;12.60;99.90
1417;DHT22;703;51.162;13.574;2023-04-01T16:11:57;12.40;99.90
1417;DHT22;703;51.162;13.574;2023-04-01T16:14:38;12.50;99.90
1417;DHT22;703;51.162;13.574;2023-04-01T16:20:19;12.40;99.90
1417;DHT22;703;51.162;13.574;2023-04-01T16:25:45;12.60;99.90
1417;DHT22;703;51.162;13.574;2023-04-01T16:28:32;12.40;99.90
1417;DHT22;703;51.162;13.574;2023-04-01T16:31:00;12.70;99.90
1417;DHT22;703;51.162;13.574;2023-04-01T16:33:47;12.30;99.90
1417;DHT22;703;51.162;13.574;2023-04-01T16:36:29;12.50;99.90
1417;DHT22;703;51.162;13.574;2023-04-01T16:42:08;12.30;99.90
1417;DHT22;703;51.162;13.574;2023-04-01T16:47:35;12.20;99.90
1417;DHT22;703;51.162;13.574;2023-04-01T16:50:24;12.00;99.90
1417;DHT22;703;51.162;13.574;2023-04-01T16:53:17;12.10;99.90
1417;DHT22;703;51.162;13.574;2023-04-01T16:55:57;12.10;99.90
1417;DHT22;703;51.162;13.574;2023-04-01T16:58:36;12.00;99.90
1417;DHT22;703;51.162;13.574;2023-04-01T17:01:07;11.90;99.90
1417;DHT22;703;51.162;13.574;2023-04-01T17:03:50;11.70;99.90
1417;DHT22;703;51.162;13.574;2023-04-01T17:06:26;11.70;99.90
1417;DHT22;703;51.162;13.574;2023-04-01T17:09:11;11.70;99.90
1417;DHT22;703;51.162;13.574;2023-04-01T17:20:52;11.80;99.90
1417;DHT22;703;51.162;13.574;2023-04-01T17:34:33;11.70;99.90
1417;DHT22;703;51.162;13.574;2023-04-01T17:40:06;11.50;99.90
1417;DHT22;703;51.162;13.574;2023-04-01T17:42:46;11.60;99.90
1417;DHT22;703;51.162;13.574;2023-04-01T17:45:27;11.30;99.90
1417;DHT22;703;51.162;13.574;2023-04-01T17:48:16;11.40;99.90
1417;DHT22;703;51.162;13.574;2023-04-01T17:53:53;11.30;99.90
1417;DHT22;703;51.162;13.574;2023-04-01T17:59:35;11.30;99.90
1417;DHT22;703;51.162;13.574;2023-04-01T18:11:09;11.10;99.90
1417;DHT22;703;51.162;13.574;2023-04-01T18:13:58;11.10;99.90
1417;DHT22;703;51.162;13.574;2023-04-01T18:21:56;10.90;99.90
1417;DHT22;703;51.162;13.574;2023-04-01T18:24:42;10.90;99.90
1417;DHT22;703;51.162;13.574;2023-04-01T18:27:17;10.80;99.90
1417;DHT22;703;51.162;13.574;2023-04-01T18:32:37;10.80;99.90
1417;DHT22;703;51.162;13.574;2023-04-01T18:37:55;10.80;99.90
1417;DHT22;703;51.162;13.574;2023-04-01T18:43:32;10.60;99.90
1417;DHT22;703;51.162;13.574;2023-04-01T18:49:20;10.50;99.90
1417;DHT22;703;51.162;13.574;2023-04-01T18:52:03;10.40;99.90
1417;DHT22;703;51.162;13.574;2023-04-01T18:54:41;10.40;99.90
1417;DHT22;703;51.162;13.574;2023-04-01T18:57:16;10.20;99.90
1417;DHT22;703;51.162;13.574;2023-04-01T19:00:04;10.20;99.90
1417;DHT22;703;51.162;13.574;2023-04-01T19:02:40;10.10;99.90
1417;DHT22;703;51.162;13.574;2023-04-01T19:05:32;10.20;99.90
1417;DHT22;703;51.162;13.574;2023-04-01T19:08:27;10.10;99.90
1417;DHT22;703;51.162;13.574;2023-04-01T19:11:10;10.10;99.90
1417;DHT22;703;51.162;13.574;2023-04-01T19:16:36;10.00;99.90
1417;DHT22;703;51.162;13.574;2023-04-01T19:21:56;10.10;99.90
1417;DHT22;703;51.162;13.574;2023-04-01T19:24:44;10.00;99.90
1417;DHT22;703;51.162;13.574;2023-04-01T19:27:36;9.80;99.90
1417;DHT22;703;51.162;13.574;2023-04-01T19:33:08;9.90;99.90
1417;DHT22;703;51.162;13.574;2023-04-01T19:35:55;10.00;99.90
1417;DHT22;703;51.162;13.574;2023-04-01T19:38:37;9.90;99.90
1417;DHT22;703;51.162;13.574;2023-04-01T19:44:12;9.80;99.90
1417;DHT22;703;51.162;13.574;2023-04-01T19:46:51;9.70;99.90
1417;DHT22;703;51.162;13.574;2023-04-01T19:55:00;9.70;99.90
1417;DHT22;703;51.162;13.574;2023-04-01T19:57:41;9.50;99.90
1417;DHT22;703;51.162;13.574;2023-04-01T20:00:34;9.60;99.90
1417;DHT22;703;51.162;13.574;2023-04-01T20:03:05;9.60;99.90
1417;DHT22;703;51.162;13.574;2023-04-01T20:05:46;9.50;99.90
1417;DHT22;703;51.162;13.574;2023-04-01T20:14:26;9.60;99.90
1417;DHT22;703;51.162;13.574;2023-04-01T20:17:01;9.60;99.90
1417;DHT22;703;51.162;13.574;2023-04-01T20:19:39;9.60;99.90
1417;DHT22;703;51.162;13.574;2023-04-01T20:25:13;9.30;99.90
1417;DHT22;703;51.162;13.574;2023-04-01T20:27:49;9.60;99.90
1417;DHT22;703;51.162;13.574;2023-04-01T20:36:00;9.60;99.90
1417;DHT22;703;51.162;13.574;2023-04-01T20:44:08;9.50;99.90
1417;DHT22;703;51.162;13.574;2023-04-01T20:49:54;9.50;99.90
1417;DHT22;703;51.162;13.574;2023-04-01T20:52:49;9.50;99.90
1417;DHT22;703;51.162;13.574;2023-04-01T20:55:21;9.20;99.90
1417;DHT22;703;51.162;13.574;2023-04-01T21:03:29;9.20;99.90
1417;DHT22;703;51.162;13.574;2023-04-01T21:06:20;9.30;99.90
1417;DHT22;703;51.162;13.574;2023-04-01T21:14:44;9.20;99.90
1417;DHT22;703;51.162;13.574;2023-04-01T21:17:28;8.90;99.90
1417;DHT22;703;51.162;13.574;2023-04-01T21:27:58;8.70;99.90
1417;DHT22;703;51.162;13.574;2023-04-01T21:30:47;8.90;99.90
1417;DHT22;703;51.162;13.574;2023-04-01T21:33:30;8.70;99.90
1417;DHT22;703;51.162;13.574;2023-04-01T21:36:09;8.60;99.90
1417;DHT22;703;51.162;13.574;2023-04-01T21:41:57;8.60;99.90
1417;DHT22;703;51.162;13.574;2023-04-01T21:50:25;8.70;99.90
1417;DHT22;703;51.162;13.574;2023-04-01T21:56:00;8.50;99.90
1417;DHT22;703;51.162;13.574;2023-04-01T22:01:40;8.40;99.90
1417;DHT22;703;51.162;13.574;2023-04-01T22:06:48;8.30;99.90
1417;DHT22;703;51.162;13.574;2023-04-01T22:09:44;8.30;99.90
1417;DHT22;703;51.162;13.574;2023-04-01T22:12:19;8.20;99.90
1417;DHT22;703;51.162;13.574;2023-04-01T22:15:17;8.20;99.90
1417;DHT22;703;51.162;13.574;2023-04-01T22:18:08;8.20;99.90
1417;DHT22;703;51.162;13.574;2023-04-01T22:20:54;8.10;99.90
1417;DHT22;703;51.162;13.574;2023-04-01T22:26:21;8.10;99.90
1417;DHT22;703;51.162;13.574;2023-04-01T22:31:30;8.10;99.90
1417;DHT22;703;51.162;13.574;2023-04-01T22:34:17;8.00;99.90
1417;DHT22;703;51.162;13.574;2023-04-01T22:37:02;7.80;99.90
1417;DHT22;703;51.162;13.574;2023-04-01T22:39:46;8.00;99.90
1417;DHT22;703;51.162;13.574;2023-04-01T22:42:35;8.00;99.90
1417;DHT22;703;51.162;13.574;2023-04-01T22:46:01;8.00;99.90
1417;DHT22;703;51.162;13.574;2023-04-01T22:48:49;7.90;99.90
1417;DHT22;703;51.162;13.574;2023-04-01T22:54:28;7.80;99.90
1417;DHT22;703;51.162;13.574;2023-04-01T22:57:02;7.80;99.90
1417;DHT22;703;51.162;13.574;2023-04-01T22:59:45;7.80;99.90
1417;DHT22;703;51.162;13.574;2023-04-01T23:02:16;7.70;99.90
1417;DHT22;703;51.162;13.574;2023-04-01T23:04:47;7.40;99.90
1417;DHT22;703;51.162;13.574;2023-04-01T23:10:42;7.60;99.90
1417;DHT22;703;51.162;13.574;2023-04-01T23:13:16;7.50;99.90
1417;DHT22;703;51.162;13.574;2023-04-01T23:15:44;7.40;99.90
1417;DHT22;703;51.162;13.574;2023-04-01T23:18:50;7.40;99.90
1417;DHT22;703;51.162;13.574;2023-04-01T23:21:40;9.00;99.90
1417;DHT22;703;51.162;13.574;2023-04-01T23:26:50;7.30;99.90
1417;DHT22;703;51.162;13.574;2023-04-01T23:29:19;7.40;99.90
1417;DHT22;703;51.162;13.574;2023-04-01T23:31:47;7.30;99.90
1417;DHT22;703;51.162;13.574;2023-04-01T23:36:42;7.20;99.90
1417;DHT22;703;51.162;13.574;2023-04-01T23:39:23;7.00;99.90
1417;DHT22;703;51.162;13.574;2023-04-01T23:41:53;6.90;99.90
1417;DHT22;703;51.162;13.574;2023-04-01T23:44:20;6.70;99.90
1417;DHT22;703;51.162;13.574;2023-04-01T23:46:47;6.60;99.90
1417;DHT22;703;51.162;13.574;2023-04-01T23:49:18;6.70;99.90
1417;DHT22;703;51.162;13.574;2023-04-01T23:51:59;6.60;99.90
1417;DHT22;703;51.162;13.574;2023-04-01T23:57:33;6.60;99.90
